Time;durP1;ratioP1;P1;durP2;ratioP2;P2;SDS_P1;SDS_P2;PMS_P1;PMS_P2;Temp;Humidity;BMP_temperature;BMP_pressure;BME280_temperature;BME280_humidity;BME280_pressure;Samples;Min_cycle;Max_cycle;Signal;HPM_P1;HPM_P2
2023/02/22 00:00:18;;;;;;;5.88;3.83;;;;;;;;;;5027618;28;20045;-66
2023/02/22 00:02:50;;;;;;;7.68;3.78;;;;;;;;;;5023022;28;20037;-66
2023/02/22 00:05:18;;;;;;;6.93;4.00;;;;;;;;;;5045676;28;20108;-66
2023/02/22 00:07:44;;;;;;;6.53;4.15;;;;;;;;;;5043379;28;20043;-66
2023/02/22 00:10:12;;;;;;;6.05;3.40;;;;;;;;;;5024979;28;20399;-67
2023/02/22 00:12:38;;;;;;;6.40;4.03;;;;;;;;;;5044682;28;20126;-67
2023/02/22 00:15:04;;;;;;;6.68;4.30;;;;;;;;;;5044961;28;20542;-66
2023/02/22 00:17:29;;;;;;;6.40;3.78;;;;;;;;;;5044167;28;20095;-67
2023/02/22 00:19:54;;;;;;;7.03;3.80;;;;;;;;;;5000344;28;20064;-66
2023/02/22 00:22:20;;;;;;;6.73;3.70;;;;;;;;;;5042922;28;20292;-67
2023/02/22 00:24:45;;;;;;;6.35;3.80;;;;;;;;;;5025938;28;20287;-67
2023/02/22 00:27:10;;;;;;;6.80;3.80;;;;;;;;;;5033966;28;20072;-66
2023/02/22 00:29:36;;;;;;;5.93;3.35;;;;;;;;;;5041079;28;20025;-68
2023/02/22 00:32:01;;;;;;;5.80;3.72;;;;;;;;;;5042256;28;20037;-66
2023/02/22 00:34:26;;;;;;;6.90;3.78;;;;;;;;;;5044613;28;20036;-66
2023/02/22 00:36:52;;;;;;;5.93;3.90;;;;;;;;;;5020009;28;20037;-66
2023/02/22 00:39:17;;;;;;;5.10;3.50;;;;;;;;;;5038206;28;20650;-68
2023/02/22 00:41:42;;;;;;;6.93;3.60;;;;;;;;;;5032661;28;20291;-66
2023/02/22 00:44:07;;;;;;;6.65;3.80;;;;;;;;;;5026456;28;20052;-68
2023/02/22 00:46:33;;;;;;;7.60;3.85;;;;;;;;;;5043117;28;20091;-67
2023/02/22 00:48:58;;;;;;;8.40;3.97;;;;;;;;;;5043454;28;20489;-67
2023/02/22 00:51:27;;;;;;;7.23;3.77;;;;;;;;;;5026388;28;20862;-68
2023/02/22 00:53:52;;;;;;;6.28;4.07;;;;;;;;;;5026048;28;20312;-68
2023/02/22 00:56:18;;;;;;;6.70;4.00;;;;;;;;;;5026619;28;20064;-68
2023/02/22 00:58:43;;;;;;;5.87;3.50;;;;;;;;;;5022531;28;20299;-66
2023/02/22 01:01:08;;;;;;;5.85;4.10;;;;;;;;;;5026357;28;20114;-66
2023/02/22 01:03:34;;;;;;;6.70;3.97;;;;;;;;;;5025265;28;20554;-68
2023/02/22 01:05:59;;;;;;;6.35;4.13;;;;;;;;;;5026655;28;20055;-66
2023/02/22 01:08:24;;;;;;;6.53;4.17;;;;;;;;;;5044442;28;20598;-68
2023/02/22 01:10:51;;;;;;;6.67;4.10;;;;;;;;;;5024721;28;20369;-67
2023/02/22 01:13:18;;;;;;;6.65;4.15;;;;;;;;;;5040885;28;20299;-66
2023/02/22 01:15:44;;;;;;;6.60;4.20;;;;;;;;;;5044826;28;20523;-64
2023/02/22 01:18:11;;;;;;;6.50;4.00;;;;;;;;;;5027415;28;20044;-67
2023/02/22 01:20:36;;;;;;;6.40;4.32;;;;;;;;;;5027030;28;20029;-67
2023/02/22 01:23:02;;;;;;;7.33;4.63;;;;;;;;;;5042583;28;20875;-66
2023/02/22 01:25:28;;;;;;;7.10;4.13;;;;;;;;;;5009448;28;20729;-66
2023/02/22 01:27:53;;;;;;;6.18;4.07;;;;;;;;;;5041378;28;20456;-67
2023/02/22 01:30:20;;;;;;;6.18;3.92;;;;;;;;;;5040993;28;20143;-67
2023/02/22 01:32:45;;;;;;;6.50;4.07;;;;;;;;;;5042454;28;20477;-68
2023/02/22 01:35:12;;;;;;;6.40;4.27;;;;;;;;;;5044355;28;20048;-68
2023/02/22 01:37:37;;;;;;;7.70;4.00;;;;;;;;;;5036721;28;20348;-67
2023/02/22 01:40:03;;;;;;;6.85;4.15;;;;;;;;;;5019239;28;20533;-67
2023/02/22 01:42:28;;;;;;;5.80;4.00;;;;;;;;;;5034614;28;20052;-66
2023/02/22 01:45:12;;;;;;;6.13;3.83;;;;;;;;;;5036878;28;20091;-66
2023/02/22 01:47:38;;;;;;;6.13;3.90;;;;;;;;;;5043222;28;20037;-67
2023/02/22 01:50:03;;;;;;;6.60;4.43;;;;;;;;;;5043608;28;20371;-66
2023/02/22 01:52:28;;;;;;;6.68;4.25;;;;;;;;;;5035730;28;20296;-67
2023/02/22 01:54:54;;;;;;;6.57;4.03;;;;;;;;;;5042399;28;20858;-67
2023/02/22 01:57:21;;;;;;;7.03;4.28;;;;;;;;;;5038993;28;20124;-66
2023/02/22 01:59:49;;;;;;;7.07;4.28;;;;;;;;;;5032383;28;20045;-68
2023/02/22 02:02:14;;;;;;;6.80;4.63;;;;;;;;;;5042188;28;20077;-66
2023/02/22 02:04:41;;;;;;;6.90;4.30;;;;;;;;;;5027550;28;20515;-67
2023/02/22 02:07:07;;;;;;;6.90;4.20;;;;;;;;;;5039324;28;20037;-67
2023/02/22 02:09:35;;;;;;;5.93;4.07;;;;;;;;;;5029852;28;20421;-66
2023/02/22 02:12:01;;;;;;;7.15;3.92;;;;;;;;;;5039360;28;20029;-67
2023/02/22 02:14:26;;;;;;;5.82;3.70;;;;;;;;;;5045144;28;20033;-66
2023/02/22 02:16:52;;;;;;;6.40;4.25;;;;;;;;;;5043948;28;20048;-67
2023/02/22 02:19:35;;;;;;;6.53;4.40;;;;;;;;;;5042844;28;20049;-67
2023/02/22 02:22:19;;;;;;;6.10;4.03;;;;;;;;;;5029194;28;20050;-66
2023/02/22 02:25:03;;;;;;;6.15;4.30;;;;;;;;;;5045649;28;20043;-66
2023/02/22 02:27:49;;;;;;;6.13;4.00;;;;;;;;;;5047589;28;20124;-66
2023/02/22 02:30:33;;;;;;;6.97;4.22;;;;;;;;;;5033320;28;20055;-66
2023/02/22 02:33:01;;;;;;;6.65;4.20;;;;;;;;;;5044963;28;20171;-66
2023/02/22 02:35:45;;;;;;;6.45;3.88;;;;;;;;;;5040093;28;20036;-66
2023/02/22 02:38:10;;;;;;;6.13;3.80;;;;;;;;;;5035253;28;20102;-66
2023/02/22 02:40:54;;;;;;;6.60;4.18;;;;;;;;;;5045754;28;20574;-65
2023/02/22 02:43:22;;;;;;;5.60;3.85;;;;;;;;;;5016575;28;20453;-67
2023/02/22 02:46:04;;;;;;;6.22;4.20;;;;;;;;;;5039044;28;20022;-68
2023/02/22 02:48:30;;;;;;;6.35;3.83;;;;;;;;;;5038745;28;20457;-66
2023/02/22 02:50:56;;;;;;;6.50;4.45;;;;;;;;;;5023390;28;20120;-67
2023/02/22 02:53:23;;;;;;;5.65;3.85;;;;;;;;;;5006012;28;20174;-67
2023/02/22 02:55:49;;;;;;;7.47;4.30;;;;;;;;;;5028962;28;20882;-67
2023/02/22 02:58:20;;;;;;;6.25;4.13;;;;;;;;;;5046559;28;20096;-66
2023/02/22 03:00:45;;;;;;;5.78;3.83;;;;;;;;;;5011129;28;21973;-67
2023/02/22 03:03:19;;;;;;;7.15;4.30;;;;;;;;;;5027551;28;20037;-67
2023/02/22 03:05:55;;;;;;;6.85;4.30;;;;;;;;;;5046178;28;20033;-67
2023/02/22 03:08:34;;;;;;;5.57;4.07;;;;;;;;;;5026690;28;20106;-69
2023/02/22 03:11:05;;;;;;;5.95;3.95;;;;;;;;;;5008538;28;20045;-66
2023/02/22 03:13:35;;;;;;;6.68;3.92;;;;;;;;;;5027857;28;20422;-68
2023/02/22 03:16:16;;;;;;;5.40;3.67;;;;;;;;;;5046553;28;20060;-67
2023/02/22 03:18:44;;;;;;;6.05;3.80;;;;;;;;;;5034066;28;20048;-69
2023/02/22 03:21:12;;;;;;;7.13;4.70;;;;;;;;;;5043265;28;20048;-67
2023/02/22 03:23:49;;;;;;;6.18;3.90;;;;;;;;;;5045857;28;20033;-66
2023/02/22 03:26:18;;;;;;;5.55;3.80;;;;;;;;;;5019150;28;20037;-66
2023/02/22 03:28:43;;;;;;;6.33;4.03;;;;;;;;;;5011982;28;20056;-67
2023/02/22 03:31:12;;;;;;;5.40;3.97;;;;;;;;;;5024483;28;20552;-68
2023/02/22 03:33:42;;;;;;;5.63;4.15;;;;;;;;;;5045375;28;20329;-66
2023/02/22 03:36:15;;;;;;;6.28;4.00;;;;;;;;;;5011431;28;20497;-66
2023/02/22 03:38:40;;;;;;;6.57;4.10;;;;;;;;;;5021067;28;20047;-67
2023/02/22 03:41:06;;;;;;;7.40;4.57;;;;;;;;;;5040091;28;20041;-67
2023/02/22 03:43:33;;;;;;;5.97;4.00;;;;;;;;;;5024909;28;20280;-67
2023/02/22 03:45:58;;;;;;;5.60;3.72;;;;;;;;;;5017594;28;20036;-67
2023/02/22 03:48:25;;;;;;;5.40;3.97;;;;;;;;;;5028074;28;20041;-67
2023/02/22 03:50:50;;;;;;;5.55;3.70;;;;;;;;;;5007751;28;20319;-67
2023/02/22 03:53:17;;;;;;;5.32;3.80;;;;;;;;;;5021652;28;20583;-65
2023/02/22 03:55:42;;;;;;;5.80;3.72;;;;;;;;;;5026047;28;20387;-66
2023/02/22 03:58:09;;;;;;;6.60;4.32;;;;;;;;;;5043221;28;20537;-67
2023/02/22 04:00:35;;;;;;;5.50;4.07;;;;;;;;;;5025287;28;20481;-66
2023/02/22 04:03:00;;;;;;;6.05;4.05;;;;;;;;;;5027525;28;20051;-66
2023/02/22 04:05:25;;;;;;;6.63;4.07;;;;;;;;;;5044121;28;20804;-68
2023/02/22 04:07:51;;;;;;;5.73;3.80;;;;;;;;;;5043610;28;20037;-67
2023/02/22 04:10:16;;;;;;;6.97;4.28;;;;;;;;;;5041782;28;20291;-64
2023/02/22 04:12:42;;;;;;;5.72;3.75;;;;;;;;;;5033889;28;20610;-67
2023/02/22 04:15:07;;;;;;;5.47;3.67;;;;;;;;;;5016604;28;20440;-66
2023/02/22 04:17:33;;;;;;;5.68;3.88;;;;;;;;;;5044055;28;20346;-66
2023/02/22 04:19:58;;;;;;;5.63;3.92;;;;;;;;;;5044861;28;20040;-68
2023/02/22 04:22:23;;;;;;;5.43;3.50;;;;;;;;;;5008475;28;20546;-68
2023/02/22 04:24:48;;;;;;;5.38;3.97;;;;;;;;;;5034098;28;20743;-69
2023/02/22 04:27:14;;;;;;;5.73;3.70;;;;;;;;;;5045427;28;20127;-68
2023/02/22 04:29:39;;;;;;;5.75;3.83;;;;;;;;;;5016407;28;20083;-68
2023/02/22 04:32:04;;;;;;;4.83;3.63;;;;;;;;;;5040903;28;20094;-67
2023/02/22 04:34:29;;;;;;;4.67;3.70;;;;;;;;;;5044381;28;20349;-69
2023/02/22 04:36:55;;;;;;;4.63;3.23;;;;;;;;;;5036818;28;20267;-70
2023/02/22 04:39:20;;;;;;;5.18;3.63;;;;;;;;;;5044691;28;20334;-69
2023/02/22 04:41:46;;;;;;;5.07;3.70;;;;;;;;;;5025856;28;20075;-68
2023/02/22 04:44:11;;;;;;;4.13;3.20;;;;;;;;;;5012614;28;20278;-68
2023/02/22 04:46:37;;;;;;;5.07;3.38;;;;;;;;;;5044767;28;20083;-68
2023/02/22 04:49:02;;;;;;;4.50;3.40;;;;;;;;;;5043186;28;20450;-68
2023/02/22 04:51:27;;;;;;;4.87;3.50;;;;;;;;;;5037092;28;20284;-68
2023/02/22 04:53:52;;;;;;;4.05;3.33;;;;;;;;;;5041975;28;20267;-67
2023/02/22 04:56:18;;;;;;;4.57;3.20;;;;;;;;;;5039976;28;20148;-69
2023/02/22 04:58:43;;;;;;;4.90;3.47;;;;;;;;;;5043602;28;20303;-68
2023/02/22 05:01:08;;;;;;;5.33;3.70;;;;;;;;;;5039945;28;20059;-68
2023/02/22 05:03:36;;;;;;;4.80;3.63;;;;;;;;;;5023064;28;20037;-67
2023/02/22 05:06:01;;;;;;;5.05;3.60;;;;;;;;;;5025936;28;20392;-68
2023/02/22 05:08:26;;;;;;;5.03;3.40;;;;;;;;;;5014691;28;20075;-67
2023/02/22 05:10:51;;;;;;;4.13;3.10;;;;;;;;;;5037264;28;21046;-67
2023/02/22 05:13:16;;;;;;;5.53;3.50;;;;;;;;;;5044274;28;20691;-67
2023/02/22 05:15:42;;;;;;;4.70;3.37;;;;;;;;;;5035089;28;20300;-67
2023/02/22 05:18:07;;;;;;;5.45;3.42;;;;;;;;;;5038707;28;20049;-70
2023/02/22 05:20:33;;;;;;;5.03;3.67;;;;;;;;;;5043596;28;20128;-67
2023/02/22 05:22:58;;;;;;;4.68;3.03;;;;;;;;;;5042998;28;20303;-66
2023/02/22 05:25:24;;;;;;;4.72;3.20;;;;;;;;;;5042321;28;20131;-67
2023/02/22 05:27:50;;;;;;;4.63;3.50;;;;;;;;;;5036611;28;20132;-67
2023/02/22 05:30:15;;;;;;;4.45;3.38;;;;;;;;;;5010737;28;20040;-65
2023/02/22 05:32:40;;;;;;;4.40;3.10;;;;;;;;;;5043949;28;20216;-64
2023/02/22 05:35:07;;;;;;;4.27;3.20;;;;;;;;;;5030612;28;20280;-65
2023/02/22 05:37:32;;;;;;;5.05;3.55;;;;;;;;;;5021538;28;20480;-64
2023/02/22 05:39:57;;;;;;;5.10;3.27;;;;;;;;;;5032444;28;20037;-65
2023/02/22 05:42:22;;;;;;;5.20;3.85;;;;;;;;;;5042982;28;20267;-65
2023/02/22 05:44:48;;;;;;;4.43;3.13;;;;;;;;;;5047530;28;20055;-64
2023/02/22 05:47:13;;;;;;;4.13;3.20;;;;;;;;;;5047003;28;20287;-67
2023/02/22 05:49:38;;;;;;;5.22;3.45;;;;;;;;;;5029716;28;20110;-64
2023/02/22 05:52:04;;;;;;;4.70;2.97;;;;;;;;;;5039602;28;20131;-64
2023/02/22 05:54:29;;;;;;;4.60;3.13;;;;;;;;;;5044920;28;20341;-64
2023/02/22 05:56:54;;;;;;;4.13;3.10;;;;;;;;;;5043412;28;20028;-63
2023/02/22 05:59:19;;;;;;;5.07;3.33;;;;;;;;;;5048276;28;20436;-63
2023/02/22 06:01:44;;;;;;;4.80;3.47;;;;;;;;;;5023785;28;20405;-64
2023/02/22 06:04:10;;;;;;;4.70;3.00;;;;;;;;;;5028986;28;20271;-66
2023/02/22 06:06:35;;;;;;;4.27;3.30;;;;;;;;;;5041264;28;20278;-65
2023/02/22 06:09:00;;;;;;;5.23;3.60;;;;;;;;;;5028443;28;20248;-66
2023/02/22 06:11:25;;;;;;;4.03;2.93;;;;;;;;;;5026993;28;20013;-64
2023/02/22 06:13:51;;;;;;;5.10;3.27;;;;;;;;;;5046750;28;20036;-66
2023/02/22 06:16:16;;;;;;;4.95;2.90;;;;;;;;;;5028351;28;20009;-66
2023/02/22 06:18:41;;;;;;;5.22;3.22;;;;;;;;;;5009501;28;20493;-63
2023/02/22 06:21:08;;;;;;;4.33;3.10;;;;;;;;;;5042605;28;20414;-66
2023/02/22 06:23:33;;;;;;;4.32;3.30;;;;;;;;;;5029222;28;20271;-67
2023/02/22 06:25:58;;;;;;;4.33;3.20;;;;;;;;;;5044402;28;20074;-66
2023/02/22 06:28:25;;;;;;;4.53;3.20;;;;;;;;;;5046130;28;20259;-67
2023/02/22 06:30:50;;;;;;;4.80;3.45;;;;;;;;;;5010755;28;20280;-66
2023/02/22 06:33:15;;;;;;;4.10;3.30;;;;;;;;;;5022655;28;20029;-63
2023/02/22 06:35:41;;;;;;;5.50;3.23;;;;;;;;;;5044026;28;20301;-66
2023/02/22 06:38:06;;;;;;;4.40;3.10;;;;;;;;;;5043080;28;20540;-63
2023/02/22 06:40:31;;;;;;;4.05;2.70;;;;;;;;;;5038817;28;20024;-69
2023/02/22 06:42:57;;;;;;;25.43;8.77;;;;;;;;;;5042538;28;20558;-66
2023/02/22 06:45:22;;;;;;;8.20;4.25;;;;;;;;;;5046820;28;20334;-66
2023/02/22 06:47:48;;;;;;;9.43;4.28;;;;;;;;;;5046277;28;20028;-63
2023/02/22 06:50:23;;;;;;;8.20;3.70;;;;;;;;;;5025118;28;20076;-64
2023/02/22 06:52:49;;;;;;;13.85;3.67;;;;;;;;;;5042052;28;20459;-68
2023/02/22 06:55:18;;;;;;;6.95;3.90;;;;;;;;;;5023324;28;20037;-66
2023/02/22 06:57:43;;;;;;;8.00;3.90;;;;;;;;;;5027977;28;20108;-67
2023/02/22 07:00:08;;;;;;;4.67;3.30;;;;;;;;;;5038665;28;20823;-69
2023/02/22 07:02:36;;;;;;;8.57;3.85;;;;;;;;;;5041185;28;20310;-67
2023/02/22 07:05:01;;;;;;;6.43;3.90;;;;;;;;;;5031138;23;20080;-68
2023/02/22 07:07:26;;;;;;;7.10;3.93;;;;;;;;;;5027580;28;20067;-69
2023/02/22 07:09:51;;;;;;;5.70;3.40;;;;;;;;;;5028011;28;20287;-65
2023/02/22 07:12:17;;;;;;;7.50;3.73;;;;;;;;;;5028170;28;20056;-65
2023/02/22 07:14:42;;;;;;;6.13;3.60;;;;;;;;;;5027214;28;20034;-69
2023/02/22 07:17:07;;;;;;;6.50;3.43;;;;;;;;;;5026004;28;20039;-68
2023/02/22 07:19:32;;;;;;;5.28;3.30;;;;;;;;;;5027877;28;20132;-66
2023/02/22 07:21:58;;;;;;;5.67;3.50;;;;;;;;;;5026476;28;20525;-62
2023/02/22 07:24:23;;;;;;;4.93;3.07;;;;;;;;;;5025795;28;20537;-70
2023/02/22 07:26:49;;;;;;;5.72;3.42;;;;;;;;;;5006233;28;20346;-67
2023/02/22 07:29:14;;;;;;;5.23;3.20;;;;;;;;;;5020940;28;20457;-64
2023/02/22 07:31:39;;;;;;;6.60;3.65;;;;;;;;;;5006394;28;20334;-68
2023/02/22 07:34:04;;;;;;;6.13;3.30;;;;;;;;;;5026433;28;20057;-70
2023/02/22 07:36:30;;;;;;;6.55;3.60;;;;;;;;;;5026371;28;20711;-64
2023/02/22 07:38:55;;;;;;;5.90;3.47;;;;;;;;;;5026951;28;20061;-70
2023/02/22 07:41:21;;;;;;;5.83;3.27;;;;;;;;;;5027742;28;20632;-68
2023/02/22 07:43:46;;;;;;;5.75;3.35;;;;;;;;;;5024981;28;20102;-67
2023/02/22 07:46:12;;;;;;;6.43;3.33;;;;;;;;;;5026505;28;20565;-65
2023/02/22 07:48:38;;;;;;;5.63;3.40;;;;;;;;;;5026889;28;20033;-70
2023/02/22 07:51:04;;;;;;;5.13;3.25;;;;;;;;;;5068637;22;20040;-70
2023/02/22 07:53:30;;;;;;;5.15;3.55;;;;;;;;;;5049332;28;20032;-68
2023/02/22 07:55:59;;;;;;;4.75;3.25;;;;;;;;;;5058174;28;20128;-64
2023/02/22 07:58:25;;;;;;;5.63;3.50;;;;;;;;;;5066587;28;20106;-61
2023/02/22 08:00:50;;;;;;;5.03;3.20;;;;;;;;;;5034902;28;20484;-72
2023/02/22 08:03:16;;;;;;;4.65;3.38;;;;;;;;;;5066913;28;20031;-66
2023/02/22 08:05:44;;;;;;;5.80;3.45;;;;;;;;;;5060342;28;20043;-69
2023/02/22 08:08:09;;;;;;;4.43;3.05;;;;;;;;;;5066949;28;20068;-67
2023/02/22 08:10:34;;;;;;;5.85;3.30;;;;;;;;;;5045227;28;20540;-68
2023/02/22 08:13:00;;;;;;;4.25;3.05;;;;;;;;;;5049278;28;20456;-66
2023/02/22 08:15:32;;;;;;;4.80;3.22;;;;;;;;;;5065913;28;20094;-65
2023/02/22 08:17:58;;;;;;;4.78;3.28;;;;;;;;;;5049292;28;20067;-69
2023/02/22 08:20:23;;;;;;;4.80;2.95;;;;;;;;;;5048750;28;20040;-68
2023/02/22 08:22:48;;;;;;;5.40;3.45;;;;;;;;;;5044983;28;20405;-71
2023/02/22 08:25:14;;;;;;;5.03;3.30;;;;;;;;;;5042009;28;20072;-68
2023/02/22 08:27:40;;;;;;;5.13;3.28;;;;;;;;;;5067521;28;20102;-69
2023/02/22 08:30:06;;;;;;;4.72;3.20;;;;;;;;;;5047720;28;20488;-70
2023/02/22 08:32:31;;;;;;;5.60;3.40;;;;;;;;;;5062733;28;20395;-71
2023/02/22 08:34:57;;;;;;;4.72;3.20;;;;;;;;;;5056377;28;20519;-60
2023/02/22 08:37:22;;;;;;;5.77;3.20;;;;;;;;;;5051328;28;20164;-66
2023/02/22 08:39:47;;;;;;;5.27;3.30;;;;;;;;;;5053342;28;20755;-67
2023/02/22 08:42:12;;;;;;;4.70;3.13;;;;;;;;;;5051005;28;20750;-70
2023/02/22 08:44:37;;;;;;;5.17;3.60;;;;;;;;;;5050897;28;20331;-67
2023/02/22 08:47:03;;;;;;;4.82;3.22;;;;;;;;;;5037049;28;20582;-62
2023/02/22 08:49:28;;;;;;;4.82;3.20;;;;;;;;;;5042048;28;20040;-69
2023/02/22 08:51:53;;;;;;;5.40;3.30;;;;;;;;;;5066659;28;20551;-70
2023/02/22 08:54:19;;;;;;;5.13;2.90;;;;;;;;;;5061733;28;20586;-63
2023/02/22 08:56:44;;;;;;;6.15;3.60;;;;;;;;;;5059785;28;20289;-64
2023/02/22 08:59:09;;;;;;;6.20;3.50;;;;;;;;;;5049625;28;20028;-65
2023/02/22 09:01:34;;;;;;;5.70;3.27;;;;;;;;;;5051583;28;21661;-68
2023/02/22 09:04:00;;;;;;;5.57;3.20;;;;;;;;;;5055131;28;20295;-66
2023/02/22 09:06:25;;;;;;;5.30;3.20;;;;;;;;;;5056818;28;20033;-68
2023/02/22 09:08:50;;;;;;;5.65;3.40;;;;;;;;;;5066879;28;20020;-68
2023/02/22 09:11:17;;;;;;;4.80;3.20;;;;;;;;;;5051703;28;20029;-69
2023/02/22 09:13:42;;;;;;;5.65;3.38;;;;;;;;;;5054276;28;20287;-66
2023/02/22 09:16:07;;;;;;;4.40;3.10;;;;;;;;;;5063579;28;20024;-69
2023/02/22 09:18:32;;;;;;;5.37;3.23;;;;;;;;;;5052750;28;20596;-63
2023/02/22 09:20:58;;;;;;;5.03;3.53;;;;;;;;;;5032670;28;20048;-67
2023/02/22 09:23:24;;;;;;;5.80;3.47;;;;;;;;;;5052917;28;20029;-69
2023/02/22 09:25:50;;;;;;;4.80;3.08;;;;;;;;;;5042807;28;20287;-64
2023/02/22 09:28:15;;;;;;;5.67;3.60;;;;;;;;;;5044229;28;20064;-68
2023/02/22 09:30:40;;;;;;;5.03;3.33;;;;;;;;;;5050084;28;20298;-66
2023/02/22 09:33:08;;;;;;;5.13;3.40;;;;;;;;;;5032603;28;20285;-65
2023/02/22 09:35:34;;;;;;;4.85;3.05;;;;;;;;;;5059347;28;20086;-62
2023/02/22 09:38:00;;;;;;;5.00;2.95;;;;;;;;;;5059576;28;20060;-68
2023/02/22 09:40:28;;;;;;;4.43;2.70;;;;;;;;;;5052072;28;20128;-68
2023/02/22 09:43:06;;;;;;;5.93;3.70;;;;;;;;;;5060439;28;20032;-69
2023/02/22 09:45:46;;;;;;;4.93;3.30;;;;;;;;;;5042294;28;20083;-70
2023/02/22 09:48:14;;;;;;;6.05;3.20;;;;;;;;;;5044240;28;20440;-69
2023/02/22 09:50:41;;;;;;;4.80;3.13;;;;;;;;;;5042927;28;20056;-65
2023/02/22 09:53:28;;;;;;;4.53;3.22;;;;;;;;;;5047626;28;20029;-70
2023/02/22 09:55:56;;;;;;;5.38;2.97;;;;;;;;;;5066010;28;20431;-69
2023/02/22 09:58:23;;;;;;;4.03;2.80;;;;;;;;;;5040813;28;20036;-69
2023/02/22 10:00:50;;;;;;;4.18;2.90;;;;;;;;;;5031135;28;20033;-68
2023/02/22 10:03:21;;;;;;;5.68;3.10;;;;;;;;;;5037069;28;20036;-68
2023/02/22 10:05:49;;;;;;;4.85;2.97;;;;;;;;;;5049791;28;20045;-63
2023/02/22 10:08:17;;;;;;;3.78;2.67;;;;;;;;;;5029744;28;20020;-69
2023/02/22 10:10:44;;;;;;;4.45;3.28;;;;;;;;;;5061141;28;20469;-65
2023/02/22 10:13:12;;;;;;;4.80;3.15;;;;;;;;;;5059492;28;20036;-68
2023/02/22 10:15:37;;;;;;;6.00;3.08;;;;;;;;;;5037753;28;20013;-67
2023/02/22 10:18:14;;;;;;;4.93;3.07;;;;;;;;;;5061756;28;20475;-67
2023/02/22 10:20:52;;;;;;;4.65;2.95;;;;;;;;;;5067607;28;20063;-70
2023/02/22 10:23:21;;;;;;;3.90;2.88;;;;;;;;;;5050270;28;20041;-71
2023/02/22 10:25:47;;;;;;;5.37;2.77;;;;;;;;;;5033548;28;20016;-71
2023/02/22 10:28:13;;;;;;;4.13;2.83;;;;;;;;;;5059316;28;20036;-66
2023/02/22 10:30:40;;;;;;;5.10;2.95;;;;;;;;;;5069058;28;20032;-70
2023/02/22 10:33:14;;;;;;;6.95;2.75;;;;;;;;;;5066324;28;20047;-68
2023/02/22 10:35:40;;;;;;;5.22;3.03;;;;;;;;;;5060513;28;20081;-62
2023/02/22 10:38:15;;;;;;;4.28;3.08;;;;;;;;;;5068339;28;20136;-70
2023/02/22 10:40:42;;;;;;;3.88;2.80;;;;;;;;;;5060721;28;20115;-69
2023/02/22 10:43:07;;;;;;;3.55;2.63;;;;;;;;;;5068873;28;20040;-66
2023/02/22 10:45:33;;;;;;;4.33;3.07;;;;;;;;;;5051715;28;20033;-63
2023/02/22 10:48:19;;;;;;;5.55;2.95;;;;;;;;;;5055477;28;20036;-68
2023/02/22 10:50:45;;;;;;;3.53;2.63;;;;;;;;;;5062875;28;20041;-64
2023/02/22 10:53:10;;;;;;;4.38;2.83;;;;;;;;;;5065453;28;20507;-70
2023/02/22 10:55:36;;;;;;;4.75;3.00;;;;;;;;;;5067818;28;20389;-69
2023/02/22 10:58:05;;;;;;;5.00;3.20;;;;;;;;;;5035383;28;20055;-70
2023/02/22 11:00:36;;;;;;;4.10;2.75;;;;;;;;;;5034352;28;20037;-70
2023/02/22 11:03:02;;;;;;;4.45;2.50;;;;;;;;;;5067841;28;20029;-69
2023/02/22 11:05:29;;;;;;;3.97;2.65;;;;;;;;;;5043293;28;20047;-69
2023/02/22 11:08:13;;;;;;;4.00;2.75;;;;;;;;;;5042428;28;20036;-68
2023/02/22 11:10:39;;;;;;;4.20;2.50;;;;;;;;;;5067263;28;20396;-66
2023/02/22 11:13:15;;;;;;;3.70;2.60;;;;;;;;;;5060315;28;20040;-64
2023/02/22 11:15:40;;;;;;;4.72;3.00;;;;;;;;;;5061693;28;20370;-67
2023/02/22 11:18:05;;;;;;;4.43;2.87;;;;;;;;;;5049824;28;20060;-62
2023/02/22 11:20:33;;;;;;;3.90;2.60;;;;;;;;;;5063050;28;20286;-67
2023/02/22 11:22:59;;;;;;;4.05;2.80;;;;;;;;;;5064900;28;20395;-61
2023/02/22 11:25:26;;;;;;;3.70;2.33;;;;;;;;;;5063579;28;20115;-63
2023/02/22 11:27:51;;;;;;;3.80;2.50;;;;;;;;;;5047463;28;20040;-62
2023/02/22 11:30:27;;;;;;;4.10;2.95;;;;;;;;;;5066029;28;20086;-68
2023/02/22 11:32:54;;;;;;;3.40;2.47;;;;;;;;;;5060901;28;20453;-65
2023/02/22 11:35:19;;;;;;;3.78;2.65;;;;;;;;;;5040727;28;20017;-67
2023/02/22 11:37:45;;;;;;;3.55;2.72;;;;;;;;;;5064115;28;20023;-64
2023/02/22 11:40:21;;;;;;;4.87;2.50;;;;;;;;;;5067027;28;20178;-67
2023/02/22 11:42:47;;;;;;;4.38;2.60;;;;;;;;;;5041369;28;20375;-68
2023/02/22 11:45:13;;;;;;;3.60;2.58;;;;;;;;;;5065672;28;20063;-65
2023/02/22 11:48:09;;;;;;;3.15;2.33;;;;;;;;;;5064749;28;20538;-69
2023/02/22 11:50:56;;;;;;;3.63;2.40;;;;;;;;;;5041578;28;20074;-66
2023/02/22 11:53:21;;;;;;;3.22;2.30;;;;;;;;;;5048433;28;20073;-67
2023/02/22 11:55:52;;;;;;;4.57;2.45;;;;;;;;;;5065759;28;20111;-69
2023/02/22 11:58:17;;;;;;;4.35;2.70;;;;;;;;;;5062991;28;20082;-67
2023/02/22 12:00:56;;;;;;;3.70;2.67;;;;;;;;;;5064449;28;20116;-68
2023/02/22 12:03:25;;;;;;;3.55;2.50;;;;;;;;;;5035604;28;20097;-61
2023/02/22 12:05:58;;;;;;;3.38;2.30;;;;;;;;;;5055032;28;20028;-63
2023/02/22 12:08:23;;;;;;;3.45;2.30;;;;;;;;;;5054076;28;20024;-69
2023/02/22 12:10:54;;;;;;;3.90;2.53;;;;;;;;;;5058074;28;20087;-66
2023/02/22 12:13:39;;;;;;;3.47;2.50;;;;;;;;;;5036417;28;20896;-65
2023/02/22 12:16:12;;;;;;;3.70;2.25;;;;;;;;;;5060339;28;20036;-63
2023/02/22 12:18:57;;;;;;;3.60;2.38;;;;;;;;;;5035389;28;20068;-62
2023/02/22 12:21:22;;;;;;;3.25;2.40;;;;;;;;;;5056250;28;20040;-66
2023/02/22 12:23:49;;;;;;;3.27;2.23;;;;;;;;;;5053592;28;20024;-60
2023/02/22 12:26:24;;;;;;;3.30;2.10;;;;;;;;;;5054205;28;20664;-67
2023/02/22 12:28:49;;;;;;;2.90;2.10;;;;;;;;;;5040991;28;20052;-68
2023/02/22 12:31:28;;;;;;;3.90;2.33;;;;;;;;;;5052764;28;20425;-66
2023/02/22 12:34:12;;;;;;;3.30;2.28;;;;;;;;;;5067606;28;20052;-63
2023/02/22 12:36:39;;;;;;;3.60;2.55;;;;;;;;;;5055032;28;20040;-64
2023/02/22 12:39:07;;;;;;;3.65;2.30;;;;;;;;;;5037489;28;20041;-63
2023/02/22 12:41:37;;;;;;;2.90;2.08;;;;;;;;;;5037471;28;20052;-65
2023/02/22 12:44:02;;;;;;;3.38;2.10;;;;;;;;;;5046364;28;20127;-66
2023/02/22 12:46:29;;;;;;;3.17;2.60;;;;;;;;;;5067937;28;20059;-64
2023/02/22 12:49:13;;;;;;;3.67;2.42;;;;;;;;;;5049226;28;20039;-66
2023/02/22 12:51:48;;;;;;;3.40;2.35;;;;;;;;;;5063132;28;20104;-63
2023/02/22 12:54:13;;;;;;;2.80;2.00;;;;;;;;;;5048209;28;20067;-65
2023/02/22 12:57:08;;;;;;;3.20;2.30;;;;;;;;;;5066274;28;20509;-64
2023/02/22 12:59:38;;;;;;;2.92;2.17;;;;;;;;;;5027105;28;20046;-67
2023/02/22 13:02:19;;;;;;;3.47;2.42;;;;;;;;;;5034300;28;20112;-65
2023/02/22 13:04:45;;;;;;;3.35;2.10;;;;;;;;;;5044505;28;20053;-65
2023/02/22 13:07:16;;;;;;;3.97;2.15;;;;;;;;;;5057330;28;20017;-67
2023/02/22 13:09:41;;;;;;;3.72;2.60;;;;;;;;;;5061818;28;20052;-67
2023/02/22 13:12:25;;;;;;;3.27;2.30;;;;;;;;;;5058184;28;20016;-67
2023/02/22 13:14:57;;;;;;;2.85;2.30;;;;;;;;;;5054958;28;20270;-68
2023/02/22 13:17:29;;;;;;;3.92;2.25;;;;;;;;;;5035756;28;20029;-68
2023/02/22 13:19:58;;;;;;;2.90;2.00;;;;;;;;;;5031776;28;20045;-65
2023/02/22 13:23:02;;;;;;;2.83;2.25;;;;;;;;;;5028938;28;20508;-68
2023/02/22 13:25:36;;;;;;;3.45;2.30;;;;;;;;;;4949847;28;20468;-67
2023/02/22 13:28:25;;;;;;;3.22;2.45;;;;;;;;;;4949474;28;20039;-68
2023/02/22 13:30:53;;;;;;;3.25;2.00;;;;;;;;;;4994232;28;20535;-65
2023/02/22 13:33:29;;;;;;;3.30;2.37;;;;;;;;;;5064481;28;20032;-67
2023/02/22 13:35:54;;;;;;;2.78;1.88;;;;;;;;;;5043858;28;20194;-67
2023/02/22 13:38:32;;;;;;;2.63;2.20;;;;;;;;;;5047415;28;20471;-63
2023/02/22 13:41:06;;;;;;;3.65;2.17;;;;;;;;;;5047101;28;20279;-66
2023/02/22 13:43:37;;;;;;;3.20;2.15;;;;;;;;;;5063399;28;20020;-66
2023/02/22 13:46:11;;;;;;;2.70;2.00;;;;;;;;;;5066261;28;20108;-65
2023/02/22 13:48:48;;;;;;;2.80;1.85;;;;;;;;;;5064152;28;20027;-67
2023/02/22 13:51:23;;;;;;;2.67;1.95;;;;;;;;;;5052435;28;20047;-67
2023/02/22 13:53:48;;;;;;;2.90;2.00;;;;;;;;;;5061213;28;20423;-66
2023/02/22 13:56:13;;;;;;;3.08;2.10;;;;;;;;;;5055611;28;20025;-66
2023/02/22 13:58:48;;;;;;;3.00;1.98;;;;;;;;;;5068995;28;20139;-68
2023/02/22 14:01:33;;;;;;;3.17;2.05;;;;;;;;;;5049252;28;20037;-65
2023/02/22 14:04:17;;;;;;;3.33;2.40;;;;;;;;;;5065040;28;20099;-66
2023/02/22 14:06:44;;;;;;;3.08;2.05;;;;;;;;;;5035031;28;20401;-67
2023/02/22 14:09:17;;;;;;;3.38;2.20;;;;;;;;;;5067241;28;20089;-65
2023/02/22 14:11:43;;;;;;;3.03;2.03;;;;;;;;;;5051834;28;20041;-66
2023/02/22 14:14:08;;;;;;;3.10;1.92;;;;;;;;;;5068110;28;20043;-66
2023/02/22 14:16:36;;;;;;;2.58;1.90;;;;;;;;;;5069374;28;20082;-68
2023/02/22 14:19:12;;;;;;;2.85;2.20;;;;;;;;;;5016172;28;20037;-67
2023/02/22 14:21:37;;;;;;;2.80;1.98;;;;;;;;;;5045628;28;20056;-66
2023/02/22 14:24:14;;;;;;;2.78;1.85;;;;;;;;;;5048527;28;20527;-65
2023/02/22 14:26:40;;;;;;;3.33;2.38;;;;;;;;;;5062439;28;20040;-68
2023/02/22 14:29:08;;;;;;;2.80;1.90;;;;;;;;;;5044419;28;20036;-65
2023/02/22 14:31:39;;;;;;;2.63;1.88;;;;;;;;;;5060662;28;20025;-65
2023/02/22 14:34:28;;;;;;;2.58;1.92;;;;;;;;;;5051679;28;20029;-67
2023/02/22 14:37:04;;;;;;;3.22;2.17;;;;;;;;;;5051280;28;20493;-67
2023/02/22 14:39:37;;;;;;;3.05;2.10;;;;;;;;;;5025136;28;20053;-68
2023/02/22 14:42:11;;;;;;;7.15;2.40;;;;;;;;;;5042773;28;20645;-65
2023/02/22 14:44:55;;;;;;;4.82;2.20;;;;;;;;;;5067937;28;20063;-65
2023/02/22 14:47:53;;;;;;;5.25;2.33;;;;;;;;;;5064820;28;20052;-68
2023/02/22 14:50:21;;;;;;;6.00;2.38;;;;;;;;;;5052916;28;20048;-67